TimePST,TemperatureF,Dew PointF,Humidity,Sea Level PressureIn,VisibilityMPH,Wind Direction,Wind SpeedMPH,Gust SpeedMPH,PrecipitationIn,Events,Conditions,WindDirDegrees,DateUTC
1:53 AM,28.9,24.1,82,30.49,10.0,Calm,Calm,-,N/A,,Clear,0,2013-03-01 09:53:00
2:53 AM,27.0,23.0,85,30.48,10.0,Calm,Calm,-,N/A,,Clear,0,2013-03-01 10:53:00
4:53 AM,26.1,21.9,84,30.50,10.0,Calm,Calm,-,N/A,,Clear,0,2013-03-01 12:53:00
6:53 AM,25.0,21.0,85,30.53,10.0,South,3.5,-,N/A,,Clear,170,2013-03-01 14:53:00
7:53 AM,27.0,23.0,85,30.54,10.0,Calm,Calm,-,N/A,,Clear,0,2013-03-01 15:53:00
8:53 AM,35.1,26.1,70,30.51,10.0,South,3.5,-,N/A,,Clear,180,2013-03-01 16:53:00
9:53 AM,45.0,28.0,52,30.47,-9999.0,Calm,Calm,-,N/A,,Clear,0,2013-03-01 17:53:00
10:53 AM,50.0,28.0,43,30.44,10.0,NNE,5.8,-,N/A,,Clear,30,2013-03-01 18:53:00
11:53 AM,50.0,33.1,52,30.43,10.0,NNE,10.4,-,N/A,,Clear,30,2013-03-01 19:53:00
12:53 PM,51.1,30.9,46,30.41,10.0,NNE,9.2,-,N/A,,Clear,30,2013-03-01 20:53:00
1:53 PM,54.0,28.9,38,30.37,10.0,Variable,3.5,-,N/A,,Clear,0,2013-03-01 21:53:00
2:53 PM,54.0,28.9,38,30.36,10.0,NE,8.1,-,N/A,,Clear,40,2013-03-01 22:53:00
3:53 PM,55.0,27.0,34,30.36,10.0,NE,3.5,-,N/A,,Clear,40,2013-03-01 23:53:00
4:53 PM,46.9,28.0,48,30.38,10.0,Calm,Calm,-,N/A,,Clear,0,2013-03-02 00:53:00
5:53 PM,43.0,28.0,56,30.41,10.0,Calm,Calm,-,N/A,,Clear,0,2013-03-02 01:53:00
6:53 PM,39.0,27.0,62,30.43,10.0,Calm,Calm,-,N/A,,Clear,0,2013-03-02 02:53:00
7:53 PM,36.0,26.1,67,30.45,10.0,Calm,Calm,-,N/A,,Clear,0,2013-03-02 03:53:00
8:53 PM,34.0,26.1,73,30.43,10.0,Calm,Calm,-,N/A,,Clear,0,2013-03-02 04:53:00
9:53 PM,33.1,26.1,75,30.42,10.0,South,3.5,-,N/A,,Clear,180,2013-03-02 05:53:00
10:53 PM,30.9,25.0,79,30.40,10.0,Calm,Calm,-,N/A,,Clear,0,2013-03-02 06:53:00
11:53 PM,30.0,25.0,82,30.39,10.0,Calm,Calm,-,N/A,,Clear,0,2013-03-02 07:53:00